Overview Statistics Trail Chart Weather Telemetry Raw packets
 

This is the latest recevied weather packets stored in our database for station/object DL2AKT-20. If no packets are shown the sender has not sent any weather packets the latest 10 day(s).

<< 30 31 32 33 34 35 36 >>
Time Temp. Humidity Pressure Rain* Wind** Luminosity Snow
1777486520 15° C 24% 1030.3 hPa - - - -
1777485620 16.11° C 24% 1030.1 hPa - - - -
1777484719 16.11° C 23% 1030.2 hPa - - - -
1777483819 16.11° C 23% 1030 hPa - - - -
1777482919 17.22° C 22% 1029.9 hPa - - - -
1777482019 17.78° C 24% 1029.9 hPa - - - -
1777481119 17.78° C 24% 1029.8 hPa - - - -
1777480219 18.33° C 23% 1029.7 hPa - - - -
1777479322 15.56° C 25% 1029.9 hPa - - - -
1777478418 15° C 26% 1029.8 hPa - - - -
1777477518 15° C 25% 1029.7 hPa - - - -
1777476618 15.56° C 24% 1029.7 hPa - - - -
1777475718 16.11° C 26% 1029.7 hPa - - - -
1777474818 17.78° C 25% 1029.6 hPa - - - -
1777473918 16.11° C 25% 1029.6 hPa - - - -
1777473018 16.67° C 23% 1029.6 hPa - - - -
1777472118 15.56° C 24% 1029.5 hPa - - - -
1777471217 16.11° C 25% 1029.5 hPa - - - -
1777470317 16.67° C 25% 1029.5 hPa - - - -
1777469417 16.67° C 26% 1029.4 hPa - - - -
1777468517 15° C 24% 1029.7 hPa - - - -
1777467616 15.56° C 25% 1029.5 hPa - - - -
1777466725 15.56° C 26% 1029.4 hPa - - - -
1777465825 16.11° C 25% 1029.4 hPa - - - -
1777464925 16.67° C 26% 1029.3 hPa - - - -

* Rain since midnight (hover to see other rain measurements)
** Current wind speed in m/s (hover to see current wind gust speed)